Terminal Aerodrome Forecast
Issued by NWS

Current Version | Previous Version | Text Only | Print | Product List | Glossary Off
Versions: 1 2 3 4 5 6 7 8 9 10 11 12

780
FTUS44 KSJT 072336
TAFSOA
TAF
KSOA 072336Z 0800/0824 01010KT P6SM SCT250
     FM081700 01011KT P6SM FEW250=

USA.gov is the U.S. government's official web portal to all federal, state and local government web resources and services.